createdAt,value
2018-10-17T00:00:20.002Z,22.47
2018-10-17T00:02:50.001Z,22.00
2018-10-17T00:05:20.188Z,23.57
2018-10-17T00:07:50.402Z,21.10
2018-10-17T00:10:20.771Z,22.10
2018-10-17T00:12:49.591Z,22.33
2018-10-17T00:15:18.401Z,22.00
2018-10-17T00:17:47.198Z,22.60
2018-10-17T00:20:16.279Z,21.60
2018-10-17T00:22:45.410Z,21.50
2018-10-17T00:25:14.479Z,21.40
2018-10-17T00:27:43.305Z,21.90
2018-10-17T00:30:13.390Z,21.47
2018-10-17T00:32:42.451Z,23.83
2018-10-17T00:35:11.404Z,21.10
2018-10-17T00:37:40.756Z,20.50
2018-10-17T00:40:09.663Z,22.90
2018-10-17T00:42:38.824Z,22.40
2018-10-17T00:45:08.654Z,23.30
2018-10-17T00:47:37.569Z,23.90
2018-10-17T00:50:06.426Z,22.87
2018-10-17T00:52:35.251Z,22.60
2018-10-17T00:55:04.134Z,24.60
2018-10-17T00:57:33.633Z,24.73
2018-10-17T01:00:02.443Z,25.30
2018-10-17T01:02:31.383Z,24.50
2018-10-17T01:05:00.275Z,24.27
2018-10-17T01:07:29.179Z,23.57
2018-10-17T01:09:58.025Z,23.60
2018-10-17T01:12:26.816Z,23.67
2018-10-17T01:14:55.663Z,26.60
2018-10-17T01:17:24.425Z,24.80
2018-10-17T01:19:53.242Z,24.30
2018-10-17T01:22:22.403Z,23.67
2018-10-17T01:24:51.216Z,24.13
2018-10-17T01:27:20.016Z,23.77
2018-10-17T01:29:49.051Z,23.33
2018-10-17T01:32:17.859Z,24.10
2018-10-17T01:34:47.093Z,25.40
2018-10-17T01:37:15.922Z,23.17
2018-10-17T01:39:44.677Z,24.10
2018-10-17T01:42:13.492Z,24.10
2018-10-17T01:44:42.334Z,23.30
2018-10-17T01:47:11.235Z,23.70
2018-10-17T01:49:40.358Z,23.40
2018-10-17T01:52:09.383Z,24.43
2018-10-17T01:54:38.462Z,26.37
2018-10-17T01:57:07.494Z,24.10
2018-10-17T01:59:36.429Z,23.63
2018-10-17T02:02:05.429Z,25.07
2018-10-17T02:04:34.267Z,25.27
2018-10-17T02:07:03.640Z,24.40
2018-10-17T02:09:32.403Z,25.33
2018-10-17T02:12:01.841Z,24.17
2018-10-17T02:14:30.647Z,25.60
2018-10-17T02:16:59.819Z,24.43
2018-10-17T02:19:28.787Z,24.20
2018-10-17T02:21:57.624Z,24.73
2018-10-17T02:24:26.408Z,24.03
2018-10-17T02:26:55.509Z,22.60
2018-10-17T02:29:24.555Z,22.30
2018-10-17T02:31:53.371Z,25.10
2018-10-17T02:34:22.224Z,25.90
2018-10-17T02:36:51.095Z,25.83
2018-10-17T02:39:20.607Z,25.10
2018-10-17T02:41:49.890Z,24.80
2018-10-17T02:44:19.462Z,23.43
2018-10-17T02:46:48.494Z,23.20
2018-10-17T02:49:17.777Z,23.00
2018-10-17T02:51:46.576Z,22.70
2018-10-17T02:54:15.467Z,23.20
2018-10-17T02:56:44.268Z,24.00
2018-10-17T02:59:13.572Z,25.20
2018-10-17T03:01:42.614Z,25.90
2018-10-17T03:04:11.752Z,26.20
2018-10-17T03:06:40.903Z,25.37
2018-10-17T03:09:10.060Z,26.37
2018-10-17T03:11:39.120Z,26.80
2018-10-17T03:14:07.918Z,25.60
2018-10-17T03:16:36.906Z,25.37
2018-10-17T03:19:06.004Z,25.77
2018-10-17T03:21:35.518Z,24.70
2018-10-17T03:24:04.517Z,23.83
2018-10-17T03:26:33.311Z,25.27
2018-10-17T03:29:02.451Z,24.70
2018-10-17T03:31:31.469Z,25.53
2018-10-17T03:34:00.244Z,25.57
2018-10-17T03:36:29.648Z,24.60
2018-10-17T03:38:58.731Z,26.83
2018-10-17T03:41:27.889Z,25.97
2018-10-17T03:43:59.782Z,26.87
2018-10-17T03:46:29.692Z,27.97
2018-10-17T03:48:58.499Z,25.77
2018-10-17T03:51:27.387Z,26.90
2018-10-17T03:53:56.239Z,26.20
2018-10-17T03:56:25.067Z,28.60
2018-10-17T03:58:53.839Z,27.77
2018-10-17T04:01:22.622Z,26.43
2018-10-17T04:03:51.777Z,26.07
2018-10-17T04:06:21.438Z,24.87
2018-10-17T04:08:50.501Z,26.70
2018-10-17T04:11:19.304Z,26.53
2018-10-17T04:13:48.413Z,26.97
2018-10-17T04:16:17.593Z,26.27
2018-10-17T04:18:46.723Z,24.93
2018-10-17T04:21:15.624Z,27.63
2018-10-17T04:23:44.759Z,26.73
2018-10-17T04:26:13.613Z,26.83
2018-10-17T04:28:42.609Z,26.30
2018-10-17T04:31:11.470Z,26.10
2018-10-17T04:33:40.574Z,26.73
2018-10-17T04:36:09.749Z,29.73
2018-10-17T04:38:38.819Z,27.50
2018-10-17T04:41:07.758Z,27.10
2018-10-17T04:43:37.206Z,27.03
2018-10-17T04:46:06.668Z,27.40
2018-10-17T04:48:36.550Z,30.47
2018-10-17T04:51:05.709Z,30.27
2018-10-17T04:53:34.692Z,29.40
2018-10-17T04:56:03.926Z,30.20
2018-10-17T04:58:32.692Z,29.07
2018-10-17T05:01:01.840Z,29.00
2018-10-17T05:03:30.884Z,29.13
2018-10-17T05:05:59.715Z,28.70
2018-10-17T05:08:28.837Z,26.40
2018-10-17T05:10:57.652Z,28.37
2018-10-17T05:13:26.785Z,29.07
2018-10-17T05:15:55.496Z,27.73
2018-10-17T05:18:24.278Z,31.10
2018-10-17T05:20:53.028Z,29.27
2018-10-17T05:23:22.143Z,29.63
2018-10-17T05:25:51.012Z,27.90
2018-10-17T05:28:20.254Z,32.40
2018-10-17T05:30:49.127Z,31.97
2018-10-17T05:33:17.890Z,30.07
2018-10-17T05:35:46.664Z,31.97
2018-10-17T05:38:15.853Z,30.97
2018-10-17T05:40:45.600Z,31.53
2018-10-17T05:43:14.506Z,31.40
2018-10-17T05:45:43.564Z,30.10
2018-10-17T05:48:12.400Z,30.37
2018-10-17T05:50:41.200Z,32.00
2018-10-17T05:53:10.433Z,32.23
2018-10-17T05:55:39.245Z,31.00
2018-10-17T05:58:08.546Z,34.13
2018-10-17T06:00:37.793Z,31.43
2018-10-17T06:03:07.325Z,32.87
2018-10-17T06:05:36.099Z,31.50
2018-10-17T06:08:05.479Z,31.50
2018-10-17T06:10:34.346Z,31.20
2018-10-17T06:13:03.499Z,32.90
2018-10-17T06:15:32.525Z,31.73
2018-10-17T06:18:01.278Z,31.97
2018-10-17T06:20:30.082Z,32.83
2018-10-17T06:22:58.976Z,32.13
2018-10-17T06:25:28.043Z,31.90
2018-10-17T06:27:56.847Z,31.63
2018-10-17T06:30:26.058Z,32.03
2018-10-17T06:32:54.932Z,32.03
2018-10-17T06:35:23.810Z,35.07
2018-10-17T06:37:52.769Z,34.07
2018-10-17T06:40:22.507Z,34.00
2018-10-17T06:42:51.575Z,34.20
2018-10-17T06:45:21.108Z,35.03
2018-10-17T06:47:50.106Z,34.03
2018-10-17T06:50:19.258Z,34.67
2018-10-17T06:52:48.481Z,35.07
2018-10-17T06:55:17.377Z,32.77
2018-10-17T06:57:46.332Z,32.50
2018-10-17T07:00:15.448Z,33.97
2018-10-17T07:02:44.538Z,33.10
2018-10-17T07:05:13.577Z,33.50
2018-10-17T07:07:42.348Z,32.30
2018-10-17T07:10:11.748Z,32.80
2018-10-17T07:12:40.536Z,33.70
2018-10-17T07:15:09.362Z,31.73
2018-10-17T07:17:38.237Z,32.70
2018-10-17T07:20:08.257Z,33.57
2018-10-17T07:22:37.710Z,31.80
2018-10-17T07:25:06.812Z,30.53
2018-10-17T07:27:35.599Z,30.90
2018-10-17T07:30:05.340Z,32.90
2018-10-17T07:32:34.450Z,31.67
2018-10-17T07:35:03.245Z,29.27
2018-10-17T07:37:32.125Z,32.80
2018-10-17T07:40:01.159Z,30.80
2018-10-17T07:42:30.084Z,32.90
2018-10-17T07:44:58.854Z,30.10
2018-10-17T07:47:27.670Z,32.40
2018-10-17T07:49:56.421Z,30.40
2018-10-17T07:52:25.678Z,33.67
2018-10-17T07:54:54.473Z,32.00
2018-10-17T07:57:23.830Z,33.47
2018-10-17T07:59:53.229Z,32.63
2018-10-17T08:02:22.227Z,33.17
2018-10-17T08:04:51.308Z,34.33
2018-10-17T08:07:20.421Z,33.53
2018-10-17T08:09:49.297Z,35.03
2018-10-17T08:12:18.267Z,33.80
2018-10-17T08:14:47.362Z,34.10
2018-10-17T08:17:16.245Z,33.80
2018-10-17T08:19:45.103Z,35.80
2018-10-17T08:22:14.250Z,33.97
2018-10-17T08:24:43.082Z,32.27
2018-10-17T08:27:12.430Z,33.40
2018-10-17T08:29:41.958Z,33.73
2018-10-17T08:32:11.090Z,34.30
2018-10-17T08:34:39.926Z,34.27
2018-10-17T08:37:09.118Z,34.70
2018-10-17T08:39:37.702Z,37.87
2018-10-17T08:42:07.171Z,34.57
2018-10-17T08:44:35.996Z,34.70
2018-10-17T08:47:05.588Z,34.90
2018-10-17T08:49:34.637Z,35.70
2018-10-17T08:52:03.501Z,34.53
2018-10-17T08:54:32.656Z,35.10
2018-10-17T08:57:01.517Z,34.50
2018-10-17T08:59:30.447Z,36.70
2018-10-17T09:01:59.360Z,35.70
2018-10-17T09:04:28.387Z,33.70
2018-10-17T09:06:57.609Z,34.33
2018-10-17T09:09:26.776Z,36.40
2018-10-17T09:11:56.086Z,36.60
2018-10-17T09:14:24.929Z,35.77
2018-10-17T09:16:53.759Z,38.07
2018-10-17T09:19:22.590Z,36.30
2018-10-17T09:21:51.686Z,34.63
2018-10-17T09:24:20.500Z,39.43
2018-10-17T09:26:49.286Z,36.10
2018-10-17T09:29:18.565Z,38.80
2018-10-17T09:31:47.414Z,37.67
2018-10-17T09:34:16.573Z,37.03
2018-10-17T09:36:45.777Z,37.43
2018-10-17T09:39:15.287Z,38.83
2018-10-17T09:41:44.058Z,38.67
2018-10-17T09:44:13.248Z,40.43
2018-10-17T09:46:42.374Z,42.60
2018-10-17T09:49:11.411Z,41.23
2018-10-17T09:51:40.246Z,41.53
2018-10-17T09:54:09.211Z,42.33
2018-10-17T09:56:38.057Z,41.33
2018-10-17T09:59:06.841Z,43.77
2018-10-17T10:01:41.240Z,41.20
2018-10-17T10:04:10.229Z,40.60
2018-10-17T10:06:39.435Z,43.53
2018-10-17T10:09:09.587Z,40.17
2018-10-17T10:11:38.506Z,40.33
2018-10-17T10:14:07.331Z,39.03
2018-10-17T10:16:36.470Z,39.60
2018-10-17T10:19:05.769Z,40.67
2018-10-17T10:21:35.020Z,41.07
2018-10-17T10:24:03.997Z,39.90
2018-10-17T10:26:32.808Z,39.93
2018-10-17T10:29:01.652Z,38.77
2018-10-17T10:31:30.514Z,40.53
2018-10-17T10:33:59.908Z,39.23
2018-10-17T10:36:29.254Z,39.27
2018-10-17T10:38:58.668Z,38.43
2018-10-17T10:41:27.485Z,38.70
2018-10-17T10:43:56.757Z,38.90
2018-10-17T10:46:25.574Z,37.70
2018-10-17T10:48:54.658Z,38.63
2018-10-17T10:51:23.871Z,38.67
2018-10-17T10:53:52.556Z,39.60
2018-10-17T10:56:21.304Z,38.27
2018-10-17T10:58:50.400Z,38.30
2018-10-17T11:01:19.452Z,38.40
2018-10-17T11:03:48.420Z,40.10
2018-10-17T11:06:17.240Z,38.73
2018-10-17T11:08:46.079Z,36.17
2018-10-17T11:11:14.970Z,33.43
2018-10-17T11:13:43.806Z,33.90
2018-10-17T11:16:18.918Z,38.20
2018-10-17T11:18:47.796Z,35.47
2018-10-17T11:21:16.751Z,35.40
2018-10-17T11:23:45.892Z,39.30
2018-10-17T11:26:14.713Z,38.03
2018-10-17T11:28:43.491Z,35.03
2018-10-17T11:31:12.731Z,37.10
2018-10-17T11:33:41.542Z,36.43
2018-10-17T11:36:10.546Z,36.30
2018-10-17T11:38:40.030Z,33.70
2018-10-17T11:41:08.873Z,36.87
2018-10-17T11:43:37.587Z,34.20
2018-10-17T11:46:07.372Z,37.53
2018-10-17T11:48:36.368Z,33.90
2018-10-17T11:51:05.411Z,33.50
2018-10-17T11:53:34.237Z,33.80
2018-10-17T11:56:03.395Z,33.70
2018-10-17T11:58:32.447Z,32.83
2018-10-17T12:01:01.542Z,33.43
2018-10-17T12:03:30.848Z,34.10
2018-10-17T12:05:59.583Z,33.53
2018-10-17T12:08:28.341Z,33.87
2018-10-17T12:10:57.379Z,34.17
2018-10-17T12:13:26.991Z,33.47
2018-10-17T12:15:55.783Z,31.03
2018-10-17T12:18:24.673Z,32.97
2018-10-17T12:20:53.454Z,31.77
2018-10-17T12:23:22.424Z,34.27
2018-10-17T12:25:51.631Z,32.73
2018-10-17T12:28:20.993Z,33.70
2018-10-17T12:30:50.045Z,34.43
2018-10-17T12:33:19.187Z,34.83
2018-10-17T12:35:48.327Z,33.33
2018-10-17T12:38:17.161Z,33.07
2018-10-17T12:40:46.298Z,33.67
2018-10-17T12:43:15.359Z,34.60
2018-10-17T12:45:44.489Z,33.10
2018-10-17T12:48:13.250Z,36.33
2018-10-17T12:50:42.870Z,33.50
2018-10-17T12:53:12.293Z,31.10
2018-10-17T12:55:41.227Z,34.83
2018-10-17T12:58:10.503Z,33.50
2018-10-17T13:00:39.711Z,32.60
2018-10-17T13:03:09.214Z,34.20
2018-10-17T13:05:38.098Z,32.40
2018-10-17T13:08:07.246Z,33.40
2018-10-17T13:10:36.702Z,34.67
2018-10-17T13:13:05.631Z,32.97
2018-10-17T13:15:34.371Z,31.27
2018-10-17T13:18:03.886Z,34.13
2018-10-17T13:20:32.887Z,32.87
2018-10-17T13:23:02.201Z,32.63
2018-10-17T13:25:31.703Z,31.20
2018-10-17T13:28:00.672Z,32.40
2018-10-17T13:30:30.431Z,30.77
2018-10-17T13:32:59.458Z,30.27
2018-10-17T13:35:28.225Z,31.60
2018-10-17T13:37:57.363Z,31.23
2018-10-17T13:40:26.495Z,30.77
2018-10-17T13:42:55.323Z,29.50
2018-10-17T13:45:24.183Z,30.27
2018-10-17T13:47:52.899Z,27.50
2018-10-17T13:50:21.936Z,28.93
2018-10-17T13:52:50.831Z,28.07
2018-10-17T13:55:20.126Z,29.60
2018-10-17T13:57:48.998Z,25.27
2018-10-17T14:00:17.783Z,27.37
2018-10-17T14:02:47.063Z,26.60
2018-10-17T14:05:15.995Z,24.83
2018-10-17T14:07:45.179Z,25.60
2018-10-17T14:10:13.953Z,28.10
2018-10-17T14:12:42.764Z,26.03
2018-10-17T14:15:14.719Z,29.07
2018-10-17T14:17:43.822Z,24.37
2018-10-17T14:20:12.612Z,24.13
2018-10-17T14:22:41.904Z,27.03
2018-10-17T14:25:10.723Z,25.20
2018-10-17T14:27:39.567Z,24.53
2018-10-17T14:30:09.354Z,23.70
2018-10-17T14:32:38.096Z,25.60
2018-10-17T14:35:10.503Z,23.50
2018-10-17T14:37:40.110Z,25.30
2018-10-17T14:40:08.906Z,23.17
2018-10-17T14:42:37.700Z,22.00
2018-10-17T14:45:08.609Z,22.37
2018-10-17T14:47:37.613Z,23.97
2018-10-17T14:50:06.415Z,22.70
2018-10-17T14:52:35.431Z,22.27
2018-10-17T14:55:04.926Z,22.00
2018-10-17T14:57:33.968Z,20.93
2018-10-17T15:00:03.356Z,21.27
2018-10-17T15:02:32.277Z,20.57
2018-10-17T15:05:01.133Z,19.53
2018-10-17T15:07:33.004Z,18.80
2018-10-17T15:10:02.726Z,18.13
2018-10-17T15:12:32.113Z,18.63
2018-10-17T15:15:01.110Z,19.37
2018-10-17T15:17:30.359Z,19.40
2018-10-17T15:19:59.789Z,20.23
2018-10-17T15:22:28.744Z,18.70
2018-10-17T15:24:57.535Z,18.20
2018-10-17T15:27:26.349Z,20.20
2018-10-17T15:29:56.449Z,18.37
2018-10-17T15:32:27.374Z,20.30
2018-10-17T15:34:56.772Z,18.90
2018-10-17T15:37:26.585Z,20.57
2018-10-17T15:39:55.987Z,19.93
2018-10-17T15:42:25.279Z,16.90
2018-10-17T15:44:54.177Z,16.50
2018-10-17T15:47:23.353Z,16.30
2018-10-17T15:49:52.705Z,16.20
2018-10-17T15:52:21.603Z,17.93
2018-10-17T15:54:54.273Z,18.57
2018-10-17T15:57:23.613Z,17.37
2018-10-17T15:59:52.512Z,17.70
2018-10-17T16:02:22.169Z,18.00
2018-10-17T16:04:51.073Z,16.30
2018-10-17T16:07:21.066Z,16.10
2018-10-17T16:09:50.244Z,16.20
2018-10-17T16:12:19.031Z,14.50
2018-10-17T16:14:47.927Z,14.97
2018-10-17T16:17:16.746Z,15.50
2018-10-17T16:19:46.010Z,14.27
2018-10-17T16:22:14.886Z,15.20
2018-10-17T16:24:43.985Z,13.23
2018-10-17T16:27:12.766Z,13.37
2018-10-17T16:29:41.614Z,13.50
2018-10-17T16:32:10.477Z,14.90
2018-10-17T16:34:39.273Z,13.03
2018-10-17T16:37:08.778Z,13.73
2018-10-17T16:39:37.571Z,13.10
2018-10-17T16:42:06.659Z,13.70
2018-10-17T16:44:35.553Z,13.23
2018-10-17T16:47:04.326Z,12.37
2018-10-17T16:49:33.569Z,12.07
2018-10-17T16:52:02.340Z,11.83
2018-10-17T16:54:31.526Z,10.73
2018-10-17T16:57:00.485Z,10.90
2018-10-17T16:59:29.614Z,10.20
2018-10-17T17:01:58.394Z,9.57
2018-10-17T17:04:27.244Z,8.90
2018-10-17T17:06:56.067Z,8.90
2018-10-17T17:09:24.891Z,9.10
2018-10-17T17:11:53.944Z,10.10
2018-10-17T17:14:22.819Z,8.77
2018-10-17T17:16:51.680Z,10.77
2018-10-17T17:19:21.453Z,9.70
2018-10-17T17:21:50.316Z,10.07
2018-10-17T17:24:20.665Z,10.20
2018-10-17T17:26:49.775Z,9.93
2018-10-17T17:29:19.009Z,10.13
2018-10-17T17:31:47.848Z,12.23
2018-10-17T17:34:17.158Z,10.90
2018-10-17T17:36:46.042Z,11.03
2018-10-17T17:39:14.865Z,9.70
2018-10-17T17:41:43.828Z,10.37
2018-10-17T17:44:12.599Z,8.83
2018-10-17T17:46:41.490Z,8.83
2018-10-17T17:49:10.540Z,10.83
2018-10-17T17:51:39.377Z,10.43
2018-10-17T17:54:08.191Z,10.63
2018-10-17T17:56:36.934Z,9.80
2018-10-17T17:59:05.851Z,9.43
2018-10-17T18:01:34.739Z,9.50
2018-10-17T18:04:03.905Z,11.43
2018-10-17T18:06:32.819Z,9.97
2018-10-17T18:09:02.057Z,9.77
2018-10-17T18:11:30.825Z,9.93
2018-10-17T18:13:59.971Z,10.10
2018-10-17T18:16:29.034Z,10.17
2018-10-17T18:18:58.022Z,10.67
2018-10-17T18:21:26.826Z,10.37
2018-10-17T18:23:55.922Z,10.23
2018-10-17T18:26:24.992Z,10.67
2018-10-17T18:28:54.242Z,9.90
2018-10-17T18:31:23.401Z,10.37
2018-10-17T18:33:52.255Z,10.53
2018-10-17T18:36:21.319Z,11.40
2018-10-17T18:38:50.114Z,9.43
2018-10-17T18:41:19.339Z,11.93
2018-10-17T18:43:48.247Z,11.40
2018-10-17T18:46:17.231Z,11.00
2018-10-17T18:48:46.243Z,10.47
2018-10-17T18:51:15.164Z,12.43
2018-10-17T18:53:44.930Z,10.87
2018-10-17T18:56:13.754Z,10.53
2018-10-17T18:58:43.283Z,10.40
2018-10-17T19:01:12.350Z,10.17
2018-10-17T19:03:41.297Z,10.80
2018-10-17T19:06:10.058Z,11.17
2018-10-17T19:08:39.172Z,10.43
2018-10-17T19:11:08.671Z,10.93
2018-10-17T19:13:37.446Z,10.90
2018-10-17T19:16:07.012Z,12.40
2018-10-17T19:18:35.783Z,12.47
2018-10-17T19:21:04.958Z,11.33
2018-10-17T19:23:33.671Z,11.50
2018-10-17T19:26:02.672Z,11.60
2018-10-17T19:28:31.814Z,11.47
2018-10-17T19:31:00.618Z,10.20
2018-10-17T19:33:29.374Z,10.33
2018-10-17T19:35:58.237Z,11.70
2018-10-17T19:38:27.357Z,12.23
2018-10-17T19:40:56.598Z,10.97
2018-10-17T19:43:25.353Z,11.97
2018-10-17T19:45:54.744Z,11.27
2018-10-17T19:48:23.550Z,11.17
2018-10-17T19:50:52.657Z,11.73
2018-10-17T19:53:22.029Z,12.83
2018-10-17T19:55:50.945Z,13.20
2018-10-17T19:58:20.317Z,11.23
2018-10-17T20:00:49.172Z,12.43
2018-10-17T20:03:17.947Z,12.77
2018-10-17T20:05:47.331Z,12.60
2018-10-17T20:08:16.283Z,12.80
2018-10-17T20:10:45.737Z,11.50
2018-10-17T20:13:14.582Z,13.13
2018-10-17T20:15:43.485Z,12.77
2018-10-17T20:18:13.307Z,11.27
2018-10-17T20:20:42.362Z,11.50
2018-10-17T20:23:11.361Z,10.93
2018-10-17T20:25:40.188Z,13.07
2018-10-17T20:28:09.314Z,12.00
2018-10-17T20:30:38.162Z,13.33
2018-10-17T20:33:07.339Z,12.37
2018-10-17T20:35:36.357Z,11.07
2018-10-17T20:38:05.815Z,12.37
2018-10-17T20:40:35.214Z,12.47
2018-10-17T20:43:04.667Z,10.93
2018-10-17T20:45:33.495Z,11.83
2018-10-17T20:48:02.276Z,11.20
2018-10-17T20:50:31.547Z,11.30
2018-10-17T20:53:00.630Z,11.23
2018-10-17T20:55:29.507Z,11.03
2018-10-17T20:57:59.818Z,11.50
2018-10-17T21:00:28.958Z,12.00
2018-10-17T21:02:58.069Z,10.80
2018-10-17T21:05:27.163Z,10.50
2018-10-17T21:07:56.056Z,11.63
2018-10-17T21:10:24.834Z,11.30
2018-10-17T21:12:53.628Z,9.87
2018-10-17T21:15:22.515Z,11.87
2018-10-17T21:17:51.553Z,11.07
2018-10-17T21:20:20.712Z,10.70
2018-10-17T21:22:49.630Z,10.97
2018-10-17T21:25:18.765Z,8.57
2018-10-17T21:27:48.201Z,9.60
2018-10-17T21:30:17.323Z,10.23
2018-10-17T21:32:46.166Z,8.07
2018-10-17T21:35:14.980Z,8.53
2018-10-17T21:37:44.291Z,9.40
2018-10-17T21:40:13.676Z,9.10
2018-10-17T21:42:44.046Z,9.67
2018-10-17T21:45:13.376Z,8.90
2018-10-17T21:47:42.910Z,7.47
2018-10-17T21:50:11.987Z,9.03
2018-10-17T21:52:41.850Z,7.50
2018-10-17T21:55:10.784Z,8.13
2018-10-17T21:57:40.248Z,7.53
2018-10-17T22:00:10.478Z,6.83
2018-10-17T22:02:39.899Z,7.10
2018-10-17T22:05:10.253Z,7.27
2018-10-17T22:07:39.528Z,7.90
2018-10-17T22:10:09.525Z,7.40
2018-10-17T22:12:38.635Z,7.87
2018-10-17T22:15:09.304Z,7.63
2018-10-17T22:17:43.870Z,7.60
2018-10-17T22:20:13.835Z,8.27
2018-10-17T22:22:42.923Z,7.30
2018-10-17T22:25:11.802Z,8.00
2018-10-17T22:27:40.744Z,7.27
2018-10-17T22:30:09.691Z,8.37
2018-10-17T22:32:38.734Z,7.77
2018-10-17T22:35:07.683Z,8.27
2018-10-17T22:37:36.935Z,8.40
2018-10-17T22:40:05.830Z,8.97
2018-10-17T22:42:34.803Z,7.17
2018-10-17T22:45:04.695Z,7.67
2018-10-17T22:47:33.549Z,8.37
2018-10-17T22:50:03.173Z,8.10
2018-10-17T22:52:32.447Z,7.80
2018-10-17T22:55:01.391Z,6.40
2018-10-17T22:57:30.251Z,7.17
2018-10-17T22:59:59.095Z,8.33
2018-10-17T23:02:28.017Z,7.50
2018-10-17T23:04:57.340Z,7.53
2018-10-17T23:07:26.264Z,7.80
2018-10-17T23:09:55.195Z,7.70
2018-10-17T23:12:24.389Z,8.90
2018-10-17T23:14:53.209Z,8.00
2018-10-17T23:17:22.252Z,9.73
2018-10-17T23:19:52.348Z,9.30
2018-10-17T23:22:21.619Z,9.20
2018-10-17T23:24:51.253Z,9.70
2018-10-17T23:27:20.405Z,9.87
2018-10-17T23:29:49.220Z,9.50
2018-10-17T23:32:18.315Z,8.80
2018-10-17T23:34:47.355Z,8.90
2018-10-17T23:37:16.558Z,10.17
2018-10-17T23:39:45.603Z,9.40
2018-10-17T23:42:15.051Z,9.83
2018-10-17T23:44:44.432Z,9.53
2018-10-17T23:47:13.921Z,9.30
2018-10-17T23:49:42.976Z,9.57
2018-10-17T23:52:11.842Z,10.20
2018-10-17T23:54:40.630Z,9.63
2018-10-17T23:57:09.453Z,10.90
2018-10-17T23:59:38.735Z,9.70
